sensor_id;sensor_type;location;lat;lon;timestamp;temperature;humidity
57108;DHT22;42987;52.916;6.542;2023-03-29T00:01:50;6.00;99.90
57108;DHT22;42987;52.916;6.542;2023-03-29T00:04:17;6.00;99.90
57108;DHT22;42987;52.916;6.542;2023-03-29T00:06:47;5.90;99.90
57108;DHT22;42987;52.916;6.542;2023-03-29T00:09:16;5.90;99.90
57108;DHT22;42987;52.916;6.542;2023-03-29T00:11:43;5.90;99.90
57108;DHT22;42987;52.916;6.542;2023-03-29T00:14:15;5.90;99.90
57108;DHT22;42987;52.916;6.542;2023-03-29T00:16:43;5.90;99.90
57108;DHT22;42987;52.916;6.542;2023-03-29T00:19:11;5.90;99.90
57108;DHT22;42987;52.916;6.542;2023-03-29T00:21:37;5.90;99.90
57108;DHT22;42987;52.916;6.542;2023-03-29T00:24:02;5.90;99.90
57108;DHT22;42987;52.916;6.542;2023-03-29T00:26:28;5.90;99.90
57108;DHT22;42987;52.916;6.542;2023-03-29T00:28:57;5.90;99.90
57108;DHT22;42987;52.916;6.542;2023-03-29T00:31:23;5.90;99.90
57108;DHT22;42987;52.916;6.542;2023-03-29T00:33:49;5.90;99.90
57108;DHT22;42987;52.916;6.542;2023-03-29T00:36:15;5.90;99.90
57108;DHT22;42987;52.916;6.542;2023-03-29T00:38:41;5.90;99.90
57108;DHT22;42987;52.916;6.542;2023-03-29T00:41:07;5.80;99.90
57108;DHT22;42987;52.916;6.542;2023-03-29T00:46:53;5.80;99.90
57108;DHT22;42987;52.916;6.542;2023-03-29T00:49:20;5.80;99.90
57108;DHT22;42987;52.916;6.542;2023-03-29T00:51:47;5.80;99.90
57108;DHT22;42987;52.916;6.542;2023-03-29T00:54:15;5.80;99.90
57108;DHT22;42987;52.916;6.542;2023-03-29T00:56:45;5.80;99.90
57108;DHT22;42987;52.916;6.542;2023-03-29T00:59:20;5.80;99.90
57108;DHT22;42987;52.916;6.542;2023-03-29T01:01:50;5.80;99.90
57108;DHT22;42987;52.916;6.542;2023-03-29T01:07:00;5.80;99.90
57108;DHT22;42987;52.916;6.542;2023-03-29T01:09:30;5.80;99.90
57108;DHT22;42987;52.916;6.542;2023-03-29T01:12:01;5.80;99.90
57108;DHT22;42987;52.916;6.542;2023-03-29T01:14:32;5.80;99.90
57108;DHT22;42987;52.916;6.542;2023-03-29T01:17:02;5.70;99.90
57108;DHT22;42987;52.916;6.542;2023-03-29T01:19:45;5.70;99.90
57108;DHT22;42987;52.916;6.542;2023-03-29T01:30:32;5.70;99.90
57108;DHT22;42987;52.916;6.542;2023-03-29T01:33:24;5.70;99.90
57108;DHT22;42987;52.916;6.542;2023-03-29T01:41:16;5.70;99.90
57108;DHT22;42987;52.916;6.542;2023-03-29T01:46:46;5.70;99.90
57108;DHT22;42987;52.916;6.542;2023-03-29T01:51:44;5.70;99.90
57108;DHT22;42987;52.916;6.542;2023-03-29T01:54:18;5.70;99.90
57108;DHT22;42987;52.916;6.542;2023-03-29T01:56:46;5.70;99.90
57108;DHT22;42987;52.916;6.542;2023-03-29T01:59:19;5.70;99.90
57108;DHT22;42987;52.916;6.542;2023-03-29T02:01:52;5.70;99.90
57108;DHT22;42987;52.916;6.542;2023-03-29T02:04:33;5.70;99.90
57108;DHT22;42987;52.916;6.542;2023-03-29T02:07:02;5.70;99.90
57108;DHT22;42987;52.916;6.542;2023-03-29T02:09:30;5.70;99.90
57108;DHT22;42987;52.916;6.542;2023-03-29T02:12:00;5.70;99.90
57108;DHT22;42987;52.916;6.542;2023-03-29T02:14:32;5.70;99.90
57108;DHT22;42987;52.916;6.542;2023-03-29T02:17:23;5.70;99.90
57108;DHT22;42987;52.916;6.542;2023-03-29T02:19:54;5.70;99.90
57108;DHT22;42987;52.916;6.542;2023-03-29T02:22:28;5.70;99.90
57108;DHT22;42987;52.916;6.542;2023-03-29T02:24:56;5.70;99.90
57108;DHT22;42987;52.916;6.542;2023-03-29T02:27:27;5.70;99.90
57108;DHT22;42987;52.916;6.542;2023-03-29T02:29:53;5.70;99.90
57108;DHT22;42987;52.916;6.542;2023-03-29T02:32:25;5.70;99.90
57108;DHT22;42987;52.916;6.542;2023-03-29T02:34:57;5.70;99.90
57108;DHT22;42987;52.916;6.542;2023-03-29T02:37:26;5.70;99.90
57108;DHT22;42987;52.916;6.542;2023-03-29T02:39:55;5.70;99.90
57108;DHT22;42987;52.916;6.542;2023-03-29T02:42:31;5.70;99.90
57108;DHT22;42987;52.916;6.542;2023-03-29T02:44:58;5.70;99.90
57108;DHT22;42987;52.916;6.542;2023-03-29T02:47:36;5.70;99.90
57108;DHT22;42987;52.916;6.542;2023-03-29T02:50:03;5.70;99.90
57108;DHT22;42987;52.916;6.542;2023-03-29T02:52:42;5.70;99.90
57108;DHT22;42987;52.916;6.542;2023-03-29T02:55:15;5.70;99.90
57108;DHT22;42987;52.916;6.542;2023-03-29T02:57:41;5.70;99.90
57108;DHT22;42987;52.916;6.542;2023-03-29T03:00:09;5.70;99.90
57108;DHT22;42987;52.916;6.542;2023-03-29T03:02:36;5.70;99.90
57108;DHT22;42987;52.916;6.542;2023-03-29T03:05:03;5.70;99.90
57108;DHT22;42987;52.916;6.542;2023-03-29T03:07:28;5.70;99.90
57108;DHT22;42987;52.916;6.542;2023-03-29T03:09:55;5.70;99.90
57108;DHT22;42987;52.916;6.542;2023-03-29T03:12:21;5.70;99.90
57108;DHT22;42987;52.916;6.542;2023-03-29T03:14:47;5.70;99.90
57108;DHT22;42987;52.916;6.542;2023-03-29T03:17:12;5.70;99.90
57108;DHT22;42987;52.916;6.542;2023-03-29T03:19:38;5.70;99.90
57108;DHT22;42987;52.916;6.542;2023-03-29T03:22:04;5.70;99.90
57108;DHT22;42987;52.916;6.542;2023-03-29T03:24:30;5.70;99.90
57108;DHT22;42987;52.916;6.542;2023-03-29T03:26:57;5.70;99.90
57108;DHT22;42987;52.916;6.542;2023-03-29T03:29:24;5.70;99.90
57108;DHT22;42987;52.916;6.542;2023-03-29T03:31:50;5.80;99.90
57108;DHT22;42987;52.916;6.542;2023-03-29T03:34:20;5.80;99.90
57108;DHT22;42987;52.916;6.542;2023-03-29T03:36:46;5.80;99.90
57108;DHT22;42987;52.916;6.542;2023-03-29T03:39:12;5.80;99.90
57108;DHT22;42987;52.916;6.542;2023-03-29T03:41:38;5.80;99.90
57108;DHT22;42987;52.916;6.542;2023-03-29T03:44:05;5.80;99.90
57108;DHT22;42987;52.916;6.542;2023-03-29T03:46:31;5.80;99.90
57108;DHT22;42987;52.916;6.542;2023-03-29T03:48:57;5.80;99.90
57108;DHT22;42987;52.916;6.542;2023-03-29T03:51:24;5.80;99.90
57108;DHT22;42987;52.916;6.542;2023-03-29T03:53:50;5.80;99.90
57108;DHT22;42987;52.916;6.542;2023-03-29T03:56:16;5.80;99.90
57108;DHT22;42987;52.916;6.542;2023-03-29T03:58:42;5.80;99.90
57108;DHT22;42987;52.916;6.542;2023-03-29T04:01:08;5.80;99.90
57108;DHT22;42987;52.916;6.542;2023-03-29T04:03:34;5.80;99.90
57108;DHT22;42987;52.916;6.542;2023-03-29T04:06:02;5.90;99.90
57108;DHT22;42987;52.916;6.542;2023-03-29T04:08:28;5.90;99.90
57108;DHT22;42987;52.916;6.542;2023-03-29T04:10:58;5.90;99.90
57108;DHT22;42987;52.916;6.542;2023-03-29T04:13:25;5.90;99.90
57108;DHT22;42987;52.916;6.542;2023-03-29T04:15:51;5.90;99.90
57108;DHT22;42987;52.916;6.542;2023-03-29T04:18:22;5.90;99.90
57108;DHT22;42987;52.916;6.542;2023-03-29T04:20:48;5.90;99.90
57108;DHT22;42987;52.916;6.542;2023-03-29T04:23:14;5.90;99.90
57108;DHT22;42987;52.916;6.542;2023-03-29T04:25:40;6.00;99.90
57108;DHT22;42987;52.916;6.542;2023-03-29T04:28:06;6.00;99.90
57108;DHT22;42987;52.916;6.542;2023-03-29T04:30:34;6.00;99.90
57108;DHT22;42987;52.916;6.542;2023-03-29T04:33:00;6.00;99.90
57108;DHT22;42987;52.916;6.542;2023-03-29T04:35:26;6.00;99.90
57108;DHT22;42987;52.916;6.542;2023-03-29T04:37:55;6.00;99.90
57108;DHT22;42987;52.916;6.542;2023-03-29T04:40:21;5.90;99.90
57108;DHT22;42987;52.916;6.542;2023-03-29T04:42:47;6.00;99.90
57108;DHT22;42987;52.916;6.542;2023-03-29T04:45:13;6.00;99.90
57108;DHT22;42987;52.916;6.542;2023-03-29T04:47:43;6.00;99.90
57108;DHT22;42987;52.916;6.542;2023-03-29T04:50:10;6.00;99.90
57108;DHT22;42987;52.916;6.542;2023-03-29T04:52:36;6.00;99.90
57108;DHT22;42987;52.916;6.542;2023-03-29T04:55:04;6.00;99.90
57108;DHT22;42987;52.916;6.542;2023-03-29T04:57:30;6.00;99.90
57108;DHT22;42987;52.916;6.542;2023-03-29T04:59:56;6.00;99.90
57108;DHT22;42987;52.916;6.542;2023-03-29T05:02:22;6.00;99.90
57108;DHT22;42987;52.916;6.542;2023-03-29T05:04:48;6.10;99.90
57108;DHT22;42987;52.916;6.542;2023-03-29T05:07:15;6.10;99.90
57108;DHT22;42987;52.916;6.542;2023-03-29T05:09:42;6.10;99.90
57108;DHT22;42987;52.916;6.542;2023-03-29T05:12:11;6.10;99.90
57108;DHT22;42987;52.916;6.542;2023-03-29T05:14:37;6.10;99.90
57108;DHT22;42987;52.916;6.542;2023-03-29T05:17:03;6.10;99.90
57108;DHT22;42987;52.916;6.542;2023-03-29T05:19:32;6.10;99.90
57108;DHT22;42987;52.916;6.542;2023-03-29T05:22:05;6.10;99.90
57108;DHT22;42987;52.916;6.542;2023-03-29T05:24:31;6.10;99.90
57108;DHT22;42987;52.916;6.542;2023-03-29T05:26:57;6.10;99.90
57108;DHT22;42987;52.916;6.542;2023-03-29T05:29:23;6.00;99.90
57108;DHT22;42987;52.916;6.542;2023-03-29T05:31:49;6.10;99.90
57108;DHT22;42987;52.916;6.542;2023-03-29T05:34:17;6.10;99.90
57108;DHT22;42987;52.916;6.542;2023-03-29T05:36:43;6.10;99.90
57108;DHT22;42987;52.916;6.542;2023-03-29T05:39:10;6.00;99.90
57108;DHT22;42987;52.916;6.542;2023-03-29T05:41:36;6.10;99.90
57108;DHT22;42987;52.916;6.542;2023-03-29T05:44:02;6.10;99.90
57108;DHT22;42987;52.916;6.542;2023-03-29T05:46:28;6.10;99.90
57108;DHT22;42987;52.916;6.542;2023-03-29T05:48:54;6.10;99.90
57108;DHT22;42987;52.916;6.542;2023-03-29T05:51:19;6.10;99.90
57108;DHT22;42987;52.916;6.542;2023-03-29T05:53:49;6.00;99.90
57108;DHT22;42987;52.916;6.542;2023-03-29T05:56:16;6.00;99.90
57108;DHT22;42987;52.916;6.542;2023-03-29T05:58:43;6.00;99.90
57108;DHT22;42987;52.916;6.542;2023-03-29T06:01:14;6.00;99.90
57108;DHT22;42987;52.916;6.542;2023-03-29T06:03:42;6.10;99.90
57108;DHT22;42987;52.916;6.542;2023-03-29T06:06:08;6.00;99.90
57108;DHT22;42987;52.916;6.542;2023-03-29T06:08:37;6.00;99.90
57108;DHT22;42987;52.916;6.542;2023-03-29T06:11:05;6.00;99.90
57108;DHT22;42987;52.916;6.542;2023-03-29T06:13:33;6.10;99.90
57108;DHT22;42987;52.916;6.542;2023-03-29T06:16:00;6.10;99.90
57108;DHT22;42987;52.916;6.542;2023-03-29T06:18:26;6.10;99.90
57108;DHT22;42987;52.916;6.542;2023-03-29T06:20:55;6.10;99.90
57108;DHT22;42987;52.916;6.542;2023-03-29T06:23:21;6.10;99.90
57108;DHT22;42987;52.916;6.542;2023-03-29T06:25:48;6.10;99.90
57108;DHT22;42987;52.916;6.542;2023-03-29T06:28:17;6.10;99.90
57108;DHT22;42987;52.916;6.542;2023-03-29T06:30:47;6.10;99.90
57108;DHT22;42987;52.916;6.542;2023-03-29T06:33:13;6.20;99.90
57108;DHT22;42987;52.916;6.542;2023-03-29T06:35:44;6.20;99.90
57108;DHT22;42987;52.916;6.542;2023-03-29T06:38:10;6.20;99.90
57108;DHT22;42987;52.916;6.542;2023-03-29T06:40:36;6.20;99.90
57108;DHT22;42987;52.916;6.542;2023-03-29T06:43:05;6.20;99.90
57108;DHT22;42987;52.916;6.542;2023-03-29T06:45:34;6.20;99.90
57108;DHT22;42987;52.916;6.542;2023-03-29T06:48:00;6.30;99.90
57108;DHT22;42987;52.916;6.542;2023-03-29T06:50:28;6.30;99.90
57108;DHT22;42987;52.916;6.542;2023-03-29T06:52:54;6.30;99.90
57108;DHT22;42987;52.916;6.542;2023-03-29T06:55:20;6.30;99.90
57108;DHT22;42987;52.916;6.542;2023-03-29T06:57:47;6.30;99.90
57108;DHT22;42987;52.916;6.542;2023-03-29T07:00:14;6.40;99.90
57108;DHT22;42987;52.916;6.542;2023-03-29T07:02:45;6.40;99.90
57108;DHT22;42987;52.916;6.542;2023-03-29T07:05:12;6.40;99.90
57108;DHT22;42987;52.916;6.542;2023-03-29T07:07:39;6.40;99.90
57108;DHT22;42987;52.916;6.542;2023-03-29T07:10:21;6.40;99.90
57108;DHT22;42987;52.916;6.542;2023-03-29T07:12:48;6.50;99.90
57108;DHT22;42987;52.916;6.542;2023-03-29T07:15:14;6.50;99.90
57108;DHT22;42987;52.916;6.542;2023-03-29T07:17:40;6.50;99.90
57108;DHT22;42987;52.916;6.542;2023-03-29T07:20:06;6.60;99.90
57108;DHT22;42987;52.916;6.542;2023-03-29T07:22:37;6.60;99.90
57108;DHT22;42987;52.916;6.542;2023-03-29T07:25:03;6.60;99.90
57108;DHT22;42987;52.916;6.542;2023-03-29T07:27:29;6.70;99.90
57108;DHT22;42987;52.916;6.542;2023-03-29T07:29:57;6.70;99.90
57108;DHT22;42987;52.916;6.542;2023-03-29T07:32:23;6.70;99.90
57108;DHT22;42987;52.916;6.542;2023-03-29T07:34:49;6.80;99.90
57108;DHT22;42987;52.916;6.542;2023-03-29T07:37:15;6.80;99.90
57108;DHT22;42987;52.916;6.542;2023-03-29T07:39:41;6.90;99.90
57108;DHT22;42987;52.916;6.542;2023-03-29T07:42:07;6.90;99.90
57108;DHT22;42987;52.916;6.542;2023-03-29T07:44:33;6.90;99.90
57108;DHT22;42987;52.916;6.542;2023-03-29T07:47:03;6.90;99.90
57108;DHT22;42987;52.916;6.542;2023-03-29T07:49:33;6.90;99.90
57108;DHT22;42987;52.916;6.542;2023-03-29T07:51:58;7.00;99.90
57108;DHT22;42987;52.916;6.542;2023-03-29T07:54:24;7.00;99.90
57108;DHT22;42987;52.916;6.542;2023-03-29T07:56:50;7.00;99.90
57108;DHT22;42987;52.916;6.542;2023-03-29T07:59:16;7.00;99.90
57108;DHT22;42987;52.916;6.542;2023-03-29T08:01:43;7.00;99.90
57108;DHT22;42987;52.916;6.542;2023-03-29T08:04:09;7.00;99.90
57108;DHT22;42987;52.916;6.542;2023-03-29T08:06:35;7.10;99.90
57108;DHT22;42987;52.916;6.542;2023-03-29T08:09:01;7.10;99.90
57108;DHT22;42987;52.916;6.542;2023-03-29T08:11:27;7.10;99.90
57108;DHT22;42987;52.916;6.542;2023-03-29T08:13:53;7.20;99.90
57108;DHT22;42987;52.916;6.542;2023-03-29T08:16:19;7.20;99.90
57108;DHT22;42987;52.916;6.542;2023-03-29T08:18:45;7.30;99.90
57108;DHT22;42987;52.916;6.542;2023-03-29T08:21:11;7.30;99.90
57108;DHT22;42987;52.916;6.542;2023-03-29T08:23:39;7.30;99.90
57108;DHT22;42987;52.916;6.542;2023-03-29T08:26:05;7.40;99.90
57108;DHT22;42987;52.916;6.542;2023-03-29T08:28:33;7.50;99.90
57108;DHT22;42987;52.916;6.542;2023-03-29T08:31:02;7.60;99.90
57108;DHT22;42987;52.916;6.542;2023-03-29T08:33:28;7.70;99.90
57108;DHT22;42987;52.916;6.542;2023-03-29T08:35:54;7.80;99.90
57108;DHT22;42987;52.916;6.542;2023-03-29T08:38:20;8.00;99.90
57108;DHT22;42987;52.916;6.542;2023-03-29T08:40:47;8.00;99.90
57108;DHT22;42987;52.916;6.542;2023-03-29T08:46:33;8.10;99.90
57108;DHT22;42987;52.916;6.542;2023-03-29T08:49:05;8.20;99.90
57108;DHT22;42987;52.916;6.542;2023-03-29T08:51:44;8.20;99.90
57108;DHT22;42987;52.916;6.542;2023-03-29T08:54:18;8.30;99.90
57108;DHT22;42987;52.916;6.542;2023-03-29T08:56:47;8.30;99.90
57108;DHT22;42987;52.916;6.542;2023-03-29T08:59:29;8.30;99.90
57108;DHT22;42987;52.916;6.542;2023-03-29T09:01:57;8.40;99.90
57108;DHT22;42987;52.916;6.542;2023-03-29T09:04:30;8.50;99.90
57108;DHT22;42987;52.916;6.542;2023-03-29T09:07:08;8.60;99.90
57108;DHT22;42987;52.916;6.542;2023-03-29T09:09:35;8.70;99.90
57108;DHT22;42987;52.916;6.542;2023-03-29T09:12:43;8.80;99.90
57108;DHT22;42987;52.916;6.542;2023-03-29T09:15:25;9.00;99.90
57108;DHT22;42987;52.916;6.542;2023-03-29T09:28:31;9.40;99.90
57108;DHT22;42987;52.916;6.542;2023-03-29T09:33:34;9.50;99.90
57108;DHT22;42987;52.916;6.542;2023-03-29T09:36:23;9.60;99.90
57108;DHT22;42987;52.916;6.542;2023-03-29T09:38:50;9.60;99.90
57108;DHT22;42987;52.916;6.542;2023-03-29T09:41:24;9.60;99.90
57108;DHT22;42987;52.916;6.542;2023-03-29T09:43:55;9.70;99.90
57108;DHT22;42987;52.916;6.542;2023-03-29T09:46:31;9.80;99.90
57108;DHT22;42987;52.916;6.542;2023-03-29T09:49:00;9.80;99.90
57108;DHT22;42987;52.916;6.542;2023-03-29T09:51:29;9.90;99.90
57108;DHT22;42987;52.916;6.542;2023-03-29T09:53:56;9.90;99.90
57108;DHT22;42987;52.916;6.542;2023-03-29T09:56:22;9.90;99.90
57108;DHT22;42987;52.916;6.542;2023-03-29T09:58:48;10.00;99.90
57108;DHT22;42987;52.916;6.542;2023-03-29T10:01:15;10.00;99.90
57108;DHT22;42987;52.916;6.542;2023-03-29T10:03:46;10.00;99.90
57108;DHT22;42987;52.916;6.542;2023-03-29T10:06:13;10.10;99.90
57108;DHT22;42987;52.916;6.542;2023-03-29T10:08:43;10.10;99.90
57108;DHT22;42987;52.916;6.542;2023-03-29T10:11:27;10.10;99.90
57108;DHT22;42987;52.916;6.542;2023-03-29T10:13:54;10.10;99.90
57108;DHT22;42987;52.916;6.542;2023-03-29T10:16:39;10.20;99.90
57108;DHT22;42987;52.916;6.542;2023-03-29T10:19:29;10.20;99.90
57108;DHT22;42987;52.916;6.542;2023-03-29T10:22:01;10.30;99.90
57108;DHT22;42987;52.916;6.542;2023-03-29T10:24:32;10.30;99.90
57108;DHT22;42987;52.916;6.542;2023-03-29T10:27:03;10.40;99.90
57108;DHT22;42987;52.916;6.542;2023-03-29T10:29:41;10.40;99.90
57108;DHT22;42987;52.916;6.542;2023-03-29T10:32:21;10.50;99.90
57108;DHT22;42987;52.916;6.542;2023-03-29T10:34:52;10.50;99.90
57108;DHT22;42987;52.916;6.542;2023-03-29T10:37:19;10.50;99.90
57108;DHT22;42987;52.916;6.542;2023-03-29T10:39:49;10.60;99.90
57108;DHT22;42987;52.916;6.542;2023-03-29T10:42:18;10.60;99.90
57108;DHT22;42987;52.916;6.542;2023-03-29T10:44:58;10.70;99.90
57108;DHT22;42987;52.916;6.542;2023-03-29T10:47:25;10.80;99.90
57108;DHT22;42987;52.916;6.542;2023-03-29T10:49:53;10.80;99.90
57108;DHT22;42987;52.916;6.542;2023-03-29T10:52:20;10.90;99.90
57108;DHT22;42987;52.916;6.542;2023-03-29T10:54:47;11.00;99.90
57108;DHT22;42987;52.916;6.542;2023-03-29T10:57:49;11.10;99.90
57108;DHT22;42987;52.916;6.542;2023-03-29T11:00:25;11.20;99.90
57108;DHT22;42987;52.916;6.542;2023-03-29T11:10:59;11.50;99.90
57108;DHT22;42987;52.916;6.542;2023-03-29T11:21:41;11.90;99.90
57108;DHT22;42987;52.916;6.542;2023-03-29T11:27:18;12.10;99.90
57108;DHT22;42987;52.916;6.542;2023-03-29T11:32:37;12.40;99.90
57108;DHT22;42987;52.916;6.542;2023-03-29T11:35:28;12.50;99.90
57108;DHT22;42987;52.916;6.542;2023-03-29T11:38:19;12.60;99.90
57108;DHT22;42987;52.916;6.542;2023-03-29T11:43:34;12.60;99.90
57108;DHT22;42987;52.916;6.542;2023-03-29T11:48:52;12.60;99.90
57108;DHT22;42987;52.916;6.542;2023-03-29T11:51:27;12.60;99.90
57108;DHT22;42987;52.916;6.542;2023-03-29T11:56:46;12.70;99.90
57108;DHT22;42987;52.916;6.542;2023-03-29T12:05:04;12.90;99.90
57108;DHT22;42987;52.916;6.542;2023-03-29T12:08:06;12.90;99.90
57108;DHT22;42987;52.916;6.542;2023-03-29T12:10:47;13.00;99.90
57108;DHT22;42987;52.916;6.542;2023-03-29T12:13:23;13.10;99.90
57108;DHT22;42987;52.916;6.542;2023-03-29T12:16:14;13.30;99.90
57108;DHT22;42987;52.916;6.542;2023-03-29T12:18:43;13.40;99.90
57108;DHT22;42987;52.916;6.542;2023-03-29T12:21:21;13.50;99.90
57108;DHT22;42987;52.916;6.542;2023-03-29T12:23:48;13.50;99.90
57108;DHT22;42987;52.916;6.542;2023-03-29T12:38:18;13.40;99.90
57108;DHT22;42987;52.916;6.542;2023-03-29T12:40:47;13.50;99.90
57108;DHT22;42987;52.916;6.542;2023-03-29T12:45:55;13.50;99.90
57108;DHT22;42987;52.916;6.542;2023-03-29T12:48:26;13.50;99.90
57108;DHT22;42987;52.916;6.542;2023-03-29T12:51:07;13.40;99.90
57108;DHT22;42987;52.916;6.542;2023-03-29T12:54:11;13.40;99.90
57108;DHT22;42987;52.916;6.542;2023-03-29T12:59:25;13.30;99.90
57108;DHT22;42987;52.916;6.542;2023-03-29T13:02:24;13.40;99.90
57108;DHT22;42987;52.916;6.542;2023-03-29T13:04:53;13.50;99.90
57108;DHT22;42987;52.916;6.542;2023-03-29T13:10:08;13.50;99.90
57108;DHT22;42987;52.916;6.542;2023-03-29T13:15:05;13.50;99.90
57108;DHT22;42987;52.916;6.542;2023-03-29T13:18:14;13.60;99.90
57108;DHT22;42987;52.916;6.542;2023-03-29T13:27:06;13.60;99.90
57108;DHT22;42987;52.916;6.542;2023-03-29T13:43:22;13.70;99.90
57108;DHT22;42987;52.916;6.542;2023-03-29T13:51:18;13.70;99.90
57108;DHT22;42987;52.916;6.542;2023-03-29T13:56:16;13.90;99.90
57108;DHT22;42987;52.916;6.542;2023-03-29T13:59:04;13.90;99.90
57108;DHT22;42987;52.916;6.542;2023-03-29T14:01:42;13.90;99.90
57108;DHT22;42987;52.916;6.542;2023-03-29T14:04:12;14.00;99.90
57108;DHT22;42987;52.916;6.542;2023-03-29T14:06:41;14.00;99.90
57108;DHT22;42987;52.916;6.542;2023-03-29T14:09:12;14.00;99.90
57108;DHT22;42987;52.916;6.542;2023-03-29T14:11:43;14.00;99.90
57108;DHT22;42987;52.916;6.542;2023-03-29T14:14:10;14.00;99.90
57108;DHT22;42987;52.916;6.542;2023-03-29T14:16:38;13.90;99.90
57108;DHT22;42987;52.916;6.542;2023-03-29T14:19:30;13.80;99.90
57108;DHT22;42987;52.916;6.542;2023-03-29T14:22:01;13.70;99.90
57108;DHT22;42987;52.916;6.542;2023-03-29T14:24:37;13.60;99.90
57108;DHT22;42987;52.916;6.542;2023-03-29T14:27:09;13.60;99.90
57108;DHT22;42987;52.916;6.542;2023-03-29T14:29:36;13.50;99.90
57108;DHT22;42987;52.916;6.542;2023-03-29T14:32:10;13.50;99.90
57108;DHT22;42987;52.916;6.542;2023-03-29T14:34:38;13.50;99.90
57108;DHT22;42987;52.916;6.542;2023-03-29T14:37:05;13.50;99.90
57108;DHT22;42987;52.916;6.542;2023-03-29T14:39:32;13.60;99.90
57108;DHT22;42987;52.916;6.542;2023-03-29T14:41:59;13.60;99.90
57108;DHT22;42987;52.916;6.542;2023-03-29T14:44:28;13.70;99.90
57108;DHT22;42987;52.916;6.542;2023-03-29T14:47:00;13.90;99.90
57108;DHT22;42987;52.916;6.542;2023-03-29T14:49:27;14.00;99.90
57108;DHT22;42987;52.916;6.542;2023-03-29T14:51:53;14.10;99.90
57108;DHT22;42987;52.916;6.542;2023-03-29T14:54:22;14.20;99.90
57108;DHT22;42987;52.916;6.542;2023-03-29T14:56:50;14.20;99.90
57108;DHT22;42987;52.916;6.542;2023-03-29T14:59:37;14.20;99.90
57108;DHT22;42987;52.916;6.542;2023-03-29T15:05:27;14.30;99.90
57108;DHT22;42987;52.916;6.542;2023-03-29T15:07:54;14.20;99.90
57108;DHT22;42987;52.916;6.542;2023-03-29T15:10:21;14.30;99.90
57108;DHT22;42987;52.916;6.542;2023-03-29T15:12:48;14.30;99.90
57108;DHT22;42987;52.916;6.542;2023-03-29T15:15:15;14.40;99.90
57108;DHT22;42987;52.916;6.542;2023-03-29T15:17:42;14.30;99.90
57108;DHT22;42987;52.916;6.542;2023-03-29T15:20:18;14.30;99.90
57108;DHT22;42987;52.916;6.542;2023-03-29T15:28:30;14.10;99.90
57108;DHT22;42987;52.916;6.542;2023-03-29T15:31:11;14.00;99.90
57108;DHT22;42987;52.916;6.542;2023-03-29T15:33:41;13.90;99.90
57108;DHT22;42987;52.916;6.542;2023-03-29T15:36:08;13.90;99.90
57108;DHT22;42987;52.916;6.542;2023-03-29T15:38:35;13.80;99.90
57108;DHT22;42987;52.916;6.542;2023-03-29T15:41:02;13.80;99.90
57108;DHT22;42987;52.916;6.542;2023-03-29T15:43:28;13.70;99.90
57108;DHT22;42987;52.916;6.542;2023-03-29T15:45:55;13.70;99.90
57108;DHT22;42987;52.916;6.542;2023-03-29T15:48:24;13.50;99.90
57108;DHT22;42987;52.916;6.542;2023-03-29T15:50:50;13.50;99.90
57108;DHT22;42987;52.916;6.542;2023-03-29T15:53:16;13.40;99.90
57108;DHT22;42987;52.916;6.542;2023-03-29T15:55:47;13.40;99.90
57108;DHT22;42987;52.916;6.542;2023-03-29T15:58:19;13.40;99.90
57108;DHT22;42987;52.916;6.542;2023-03-29T16:00:57;13.30;99.90
57108;DHT22;42987;52.916;6.542;2023-03-29T16:03:27;13.30;99.90
57108;DHT22;42987;52.916;6.542;2023-03-29T16:05:53;13.20;99.90
57108;DHT22;42987;52.916;6.542;2023-03-29T16:08:21;13.20;99.90
57108;DHT22;42987;52.916;6.542;2023-03-29T16:10:47;13.20;99.90
57108;DHT22;42987;52.916;6.542;2023-03-29T16:13:14;13.20;99.90
57108;DHT22;42987;52.916;6.542;2023-03-29T16:15:41;13.20;99.90
57108;DHT22;42987;52.916;6.542;2023-03-29T16:18:07;13.10;99.90
57108;DHT22;42987;52.916;6.542;2023-03-29T16:20:33;13.10;99.90
57108;DHT22;42987;52.916;6.542;2023-03-29T16:23:04;13.00;99.90
57108;DHT22;42987;52.916;6.542;2023-03-29T16:25:37;13.00;99.90
57108;DHT22;42987;52.916;6.542;2023-03-29T16:28:05;13.00;99.90
57108;DHT22;42987;52.916;6.542;2023-03-29T16:30:34;12.90;99.90
57108;DHT22;42987;52.916;6.542;2023-03-29T16:33:00;12.90;99.90
57108;DHT22;42987;52.916;6.542;2023-03-29T16:35:36;12.80;99.90
57108;DHT22;42987;52.916;6.542;2023-03-29T16:38:02;12.70;99.90
57108;DHT22;42987;52.916;6.542;2023-03-29T16:40:28;12.60;99.90
57108;DHT22;42987;52.916;6.542;2023-03-29T16:42:54;12.50;99.90
57108;DHT22;42987;52.916;6.542;2023-03-29T16:45:20;12.50;99.90
57108;DHT22;42987;52.916;6.542;2023-03-29T16:47:46;12.50;99.90
57108;DHT22;42987;52.916;6.542;2023-03-29T16:50:14;12.40;99.90
57108;DHT22;42987;52.916;6.542;2023-03-29T16:52:40;12.30;99.90
57108;DHT22;42987;52.916;6.542;2023-03-29T16:55:08;12.30;99.90
57108;DHT22;42987;52.916;6.542;2023-03-29T16:57:43;12.20;99.90
57108;DHT22;42987;52.916;6.542;2023-03-29T17:00:14;12.10;99.90
57108;DHT22;42987;52.916;6.542;2023-03-29T17:02:44;12.10;99.90
57108;DHT22;42987;52.916;6.542;2023-03-29T17:05:13;12.00;99.90
57108;DHT22;42987;52.916;6.542;2023-03-29T17:07:39;12.00;99.90
57108;DHT22;42987;52.916;6.542;2023-03-29T17:10:09;12.00;99.90
57108;DHT22;42987;52.916;6.542;2023-03-29T17:12:35;11.90;99.90
57108;DHT22;42987;52.916;6.542;2023-03-29T17:15:01;11.90;99.90
57108;DHT22;42987;52.916;6.542;2023-03-29T17:17:27;11.90;99.90
57108;DHT22;42987;52.916;6.542;2023-03-29T17:19:56;11.80;99.90
57108;DHT22;42987;52.916;6.542;2023-03-29T17:22:22;11.80;99.90
57108;DHT22;42987;52.916;6.542;2023-03-29T17:24:48;11.80;99.90
57108;DHT22;42987;52.916;6.542;2023-03-29T17:27:14;11.80;99.90
57108;DHT22;42987;52.916;6.542;2023-03-29T17:29:40;11.80;99.90
57108;DHT22;42987;52.916;6.542;2023-03-29T17:32:06;11.70;99.90
57108;DHT22;42987;52.916;6.542;2023-03-29T17:34:32;11.70;99.90
57108;DHT22;42987;52.916;6.542;2023-03-29T17:36:59;11.70;99.90
57108;DHT22;42987;52.916;6.542;2023-03-29T17:39:28;11.70;99.90
57108;DHT22;42987;52.916;6.542;2023-03-29T17:41:55;11.60;99.90
57108;DHT22;42987;52.916;6.542;2023-03-29T17:44:20;11.60;99.90
57108;DHT22;42987;52.916;6.542;2023-03-29T17:46:49;11.60;99.90
57108;DHT22;42987;52.916;6.542;2023-03-29T17:49:15;11.60;99.90
57108;DHT22;42987;52.916;6.542;2023-03-29T17:51:41;11.50;99.90
57108;DHT22;42987;52.916;6.542;2023-03-29T17:54:07;11.50;99.90
57108;DHT22;42987;52.916;6.542;2023-03-29T17:56:33;11.50;99.90
57108;DHT22;42987;52.916;6.542;2023-03-29T17:59:01;11.50;99.90
57108;DHT22;42987;52.916;6.542;2023-03-29T18:01:27;11.40;99.90
57108;DHT22;42987;52.916;6.542;2023-03-29T18:03:53;11.40;99.90
57108;DHT22;42987;52.916;6.542;2023-03-29T18:06:19;11.40;99.90
57108;DHT22;42987;52.916;6.542;2023-03-29T18:08:45;11.40;99.90
57108;DHT22;42987;52.916;6.542;2023-03-29T18:11:34;11.30;99.90
57108;DHT22;42987;52.916;6.542;2023-03-29T18:14:01;11.30;99.90